Pleasant Hope, Missouri
Current Conditions -  °F | °C
As of 5:52 AM on Friday 19 Dec 2014 (Local Time) from KSGF Reporting Station
Haze Haze  
Wind Chill: 37°   Ceiling: 300
Heat Index: 37°   Visibility: 6mi
Dew Point: 35°   Wind: 3mph
Humidity: 93%   Direction: 90°E
Pressure: 30.19"   Gusts: NA
Location:  37.46°N, 93.27°W
Report Text: KSGF 191152Z 09003KT 6SM BR OVC003 03/02 A3019 RMK AO2 SLP232 T00280017 10033 20028 53002
Loading
Personal Weather Stations






























Interactive Weather Map New forecast layout! Learn more

10-Day Weather Forecast

Advertisements
Track Severe Weather on mobile